Glenover, Nebraska
Current Conditions -  °F | °C
As of 10:15 AM on Monday 22 Dec 2014 (Local Time) from KBIE Reporting Station
Haze Haze  
Wind Chill: 39°   Ceiling: 1200
Heat Index: 43°   Visibility: 4mi
Dew Point: 43°   Wind: 7mph
Humidity: 98%   Direction: 280°W
Pressure: 29.49"   Gusts: NA
Location:  40.2674°N, 96.7699°W
Report Text: KBIE 221615Z AUTO 28006KT 4SM BR SCT006 BKN012 OVC021 06/06 A2949 RMK AO2 T00620059
Loading
Personal Weather Stations






























Interactive Weather Map New forecast layout! Learn more

10-Day Weather Forecast

Advertisements
Track Severe Weather on mobile